sensor_id;sensor_type;location;lat;lon;timestamp;temperature;humidity
9448;DHT22;4762;48.128;11.376;2024-01-06T00:00:43;4.80;92.10
9448;DHT22;4762;48.128;11.376;2024-01-06T00:02:45;4.90;92.10
9448;DHT22;4762;48.128;11.376;2024-01-06T00:04:48;4.90;92.00
9448;DHT22;4762;48.128;11.376;2024-01-06T00:06:51;4.80;92.00
9448;DHT22;4762;48.128;11.376;2024-01-06T00:08:54;4.80;92.00
9448;DHT22;4762;48.128;11.376;2024-01-06T00:10:57;4.80;92.10
9448;DHT22;4762;48.128;11.376;2024-01-06T00:13:00;4.90;92.00
9448;DHT22;4762;48.128;11.376;2024-01-06T00:15:03;4.80;92.20
9448;DHT22;4762;48.128;11.376;2024-01-06T00:17:05;4.90;92.10
9448;DHT22;4762;48.128;11.376;2024-01-06T00:19:08;4.90;92.10
9448;DHT22;4762;48.128;11.376;2024-01-06T00:21:10;4.80;92.10
9448;DHT22;4762;48.128;11.376;2024-01-06T00:23:13;4.80;92.10
9448;DHT22;4762;48.128;11.376;2024-01-06T00:25:15;5.00;92.20
9448;DHT22;4762;48.128;11.376;2024-01-06T00:27:17;4.90;92.20
9448;DHT22;4762;48.128;11.376;2024-01-06T00:29:20;4.90;92.30
9448;DHT22;4762;48.128;11.376;2024-01-06T00:31:23;5.00;92.10
9448;DHT22;4762;48.128;11.376;2024-01-06T00:33:26;4.80;92.20
9448;DHT22;4762;48.128;11.376;2024-01-06T00:35:28;4.90;92.20
9448;DHT22;4762;48.128;11.376;2024-01-06T00:37:30;4.60;92.30
9448;DHT22;4762;48.128;11.376;2024-01-06T00:39:33;4.60;92.20
9448;DHT22;4762;48.128;11.376;2024-01-06T00:41:35;4.90;92.20
9448;DHT22;4762;48.128;11.376;2024-01-06T00:43:37;4.80;92.30
9448;DHT22;4762;48.128;11.376;2024-01-06T00:45:39;4.80;92.20
9448;DHT22;4762;48.128;11.376;2024-01-06T00:47:42;4.90;92.30
9448;DHT22;4762;48.128;11.376;2024-01-06T00:49:46;4.70;92.30
9448;DHT22;4762;48.128;11.376;2024-01-06T00:51:48;4.70;92.30
9448;DHT22;4762;48.128;11.376;2024-01-06T00:53:50;4.70;92.20
9448;DHT22;4762;48.128;11.376;2024-01-06T00:55:54;4.80;92.40
9448;DHT22;4762;48.128;11.376;2024-01-06T00:57:56;4.80;92.20
9448;DHT22;4762;48.128;11.376;2024-01-06T00:59:59;4.80;92.40
9448;DHT22;4762;48.128;11.376;2024-01-06T01:02:01;4.70;92.40
9448;DHT22;4762;48.128;11.376;2024-01-06T01:04:03;4.70;92.40
9448;DHT22;4762;48.128;11.376;2024-01-06T01:06:05;4.80;92.30
9448;DHT22;4762;48.128;11.376;2024-01-06T01:08:07;4.70;92.30
9448;DHT22;4762;48.128;11.376;2024-01-06T01:10:10;4.70;92.20
9448;DHT22;4762;48.128;11.376;2024-01-06T01:12:12;4.80;92.30
9448;DHT22;4762;48.128;11.376;2024-01-06T01:14:15;4.80;92.20
9448;DHT22;4762;48.128;11.376;2024-01-06T01:16:17;4.80;92.30
9448;DHT22;4762;48.128;11.376;2024-01-06T01:18:19;4.70;92.20
9448;DHT22;4762;48.128;11.376;2024-01-06T01:20:21;4.70;92.20
9448;DHT22;4762;48.128;11.376;2024-01-06T01:22:23;4.90;92.30
9448;DHT22;4762;48.128;11.376;2024-01-06T01:24:26;4.80;92.30
9448;DHT22;4762;48.128;11.376;2024-01-06T01:26:29;4.80;92.20
9448;DHT22;4762;48.128;11.376;2024-01-06T01:28:31;4.80;92.30
9448;DHT22;4762;48.128;11.376;2024-01-06T01:30:33;4.70;92.20
9448;DHT22;4762;48.128;11.376;2024-01-06T01:32:35;4.70;92.10
9448;DHT22;4762;48.128;11.376;2024-01-06T01:34:37;4.80;92.20
9448;DHT22;4762;48.128;11.376;2024-01-06T01:36:40;4.70;92.20
9448;DHT22;4762;48.128;11.376;2024-01-06T01:38:42;4.80;92.30
9448;DHT22;4762;48.128;11.376;2024-01-06T01:40:44;4.80;92.20
9448;DHT22;4762;48.128;11.376;2024-01-06T01:42:46;4.70;92.30
9448;DHT22;4762;48.128;11.376;2024-01-06T01:44:48;4.70;92.30
9448;DHT22;4762;48.128;11.376;2024-01-06T01:46:51;4.60;92.30
9448;DHT22;4762;48.128;11.376;2024-01-06T01:48:54;4.70;92.40
9448;DHT22;4762;48.128;11.376;2024-01-06T01:50:56;4.80;92.40
9448;DHT22;4762;48.128;11.376;2024-01-06T01:52:58;4.70;92.30
9448;DHT22;4762;48.128;11.376;2024-01-06T01:55:00;4.80;92.30
9448;DHT22;4762;48.128;11.376;2024-01-06T01:57:02;4.70;92.40
9448;DHT22;4762;48.128;11.376;2024-01-06T01:59:09;4.60;92.40
9448;DHT22;4762;48.128;11.376;2024-01-06T02:01:08;4.60;92.40
9448;DHT22;4762;48.128;11.376;2024-01-06T02:03:10;4.70;92.30
9448;DHT22;4762;48.128;11.376;2024-01-06T02:05:12;4.80;92.50
9448;DHT22;4762;48.128;11.376;2024-01-06T02:07:14;4.50;92.40
9448;DHT22;4762;48.128;11.376;2024-01-06T02:09:17;4.60;92.40
9448;DHT22;4762;48.128;11.376;2024-01-06T02:11:19;4.50;92.30
9448;DHT22;4762;48.128;11.376;2024-01-06T02:13:21;4.80;92.50
9448;DHT22;4762;48.128;11.376;2024-01-06T02:15:24;4.40;92.50
9448;DHT22;4762;48.128;11.376;2024-01-06T02:17:26;4.70;92.50
9448;DHT22;4762;48.128;11.376;2024-01-06T02:19:28;4.60;92.50
9448;DHT22;4762;48.128;11.376;2024-01-06T02:21:30;4.70;92.50
9448;DHT22;4762;48.128;11.376;2024-01-06T02:23:34;4.70;92.40
9448;DHT22;4762;48.128;11.376;2024-01-06T02:25:35;4.50;92.40
9448;DHT22;4762;48.128;11.376;2024-01-06T02:27:38;4.70;92.40
9448;DHT22;4762;48.128;11.376;2024-01-06T02:29:41;4.70;92.50
9448;DHT22;4762;48.128;11.376;2024-01-06T02:31:43;4.50;92.40
9448;DHT22;4762;48.128;11.376;2024-01-06T02:33:45;4.50;92.50
9448;DHT22;4762;48.128;11.376;2024-01-06T02:35:47;4.60;92.40
9448;DHT22;4762;48.128;11.376;2024-01-06T02:37:50;4.60;92.60
9448;DHT22;4762;48.128;11.376;2024-01-06T02:39:52;4.60;92.50
9448;DHT22;4762;48.128;11.376;2024-01-06T02:41:54;4.50;92.60
9448;DHT22;4762;48.128;11.376;2024-01-06T02:43:57;4.50;92.60
9448;DHT22;4762;48.128;11.376;2024-01-06T02:45:59;4.60;92.50
9448;DHT22;4762;48.128;11.376;2024-01-06T02:48:01;4.60;92.60
9448;DHT22;4762;48.128;11.376;2024-01-06T02:50:04;4.60;92.60
9448;DHT22;4762;48.128;11.376;2024-01-06T02:52:07;4.60;92.60
9448;DHT22;4762;48.128;11.376;2024-01-06T02:54:10;4.50;92.50
9448;DHT22;4762;48.128;11.376;2024-01-06T02:56:12;4.50;92.50
9448;DHT22;4762;48.128;11.376;2024-01-06T02:58:14;4.30;92.60
9448;DHT22;4762;48.128;11.376;2024-01-06T03:00:17;4.50;92.60
9448;DHT22;4762;48.128;11.376;2024-01-06T03:02:19;4.30;92.50
9448;DHT22;4762;48.128;11.376;2024-01-06T03:04:21;4.40;92.50
9448;DHT22;4762;48.128;11.376;2024-01-06T03:06:23;4.50;92.50
9448;DHT22;4762;48.128;11.376;2024-01-06T03:08:25;4.20;92.60
9448;DHT22;4762;48.128;11.376;2024-01-06T03:10:28;4.50;92.50
9448;DHT22;4762;48.128;11.376;2024-01-06T03:12:30;4.40;92.60
9448;DHT22;4762;48.128;11.376;2024-01-06T03:14:33;4.50;92.70
9448;DHT22;4762;48.128;11.376;2024-01-06T03:16:34;4.20;92.50
9448;DHT22;4762;48.128;11.376;2024-01-06T03:18:36;4.40;92.70
9448;DHT22;4762;48.128;11.376;2024-01-06T03:20:39;4.40;92.50
9448;DHT22;4762;48.128;11.376;2024-01-06T03:22:46;4.10;92.50
9448;DHT22;4762;48.128;11.376;2024-01-06T03:24:48;4.20;92.40
9448;DHT22;4762;48.128;11.376;2024-01-06T03:26:50;4.20;92.50
9448;DHT22;4762;48.128;11.376;2024-01-06T03:28:53;3.90;91.60
9448;DHT22;4762;48.128;11.376;2024-01-06T03:30:56;3.90;91.50
9448;DHT22;4762;48.128;11.376;2024-01-06T03:32:58;4.00;91.90
9448;DHT22;4762;48.128;11.376;2024-01-06T03:35:00;4.10;92.10
9448;DHT22;4762;48.128;11.376;2024-01-06T03:37:02;4.30;92.20
9448;DHT22;4762;48.128;11.376;2024-01-06T03:39:05;4.10;92.30
9448;DHT22;4762;48.128;11.376;2024-01-06T03:41:09;4.20;92.40
9448;DHT22;4762;48.128;11.376;2024-01-06T03:43:12;4.20;92.30
9448;DHT22;4762;48.128;11.376;2024-01-06T03:45:14;4.20;92.30
9448;DHT22;4762;48.128;11.376;2024-01-06T03:47:16;4.30;92.20
9448;DHT22;4762;48.128;11.376;2024-01-06T03:49:18;4.10;92.30
9448;DHT22;4762;48.128;11.376;2024-01-06T03:51:20;4.00;92.10
9448;DHT22;4762;48.128;11.376;2024-01-06T03:53:23;4.00;92.10
9448;DHT22;4762;48.128;11.376;2024-01-06T03:55:25;4.10;92.10
9448;DHT22;4762;48.128;11.376;2024-01-06T03:57:27;4.10;92.30
9448;DHT22;4762;48.128;11.376;2024-01-06T03:59:29;4.10;92.20
9448;DHT22;4762;48.128;11.376;2024-01-06T04:01:31;4.00;92.40
9448;DHT22;4762;48.128;11.376;2024-01-06T04:03:35;4.10;92.40
9448;DHT22;4762;48.128;11.376;2024-01-06T04:05:37;4.10;92.60
9448;DHT22;4762;48.128;11.376;2024-01-06T04:07:39;4.10;92.40
9448;DHT22;4762;48.128;11.376;2024-01-06T04:09:42;4.10;92.40
9448;DHT22;4762;48.128;11.376;2024-01-06T04:11:44;4.10;92.30
9448;DHT22;4762;48.128;11.376;2024-01-06T04:13:46;4.10;92.40
9448;DHT22;4762;48.128;11.376;2024-01-06T04:15:48;4.20;92.40
9448;DHT22;4762;48.128;11.376;2024-01-06T04:17:54;4.00;92.20
9448;DHT22;4762;48.128;11.376;2024-01-06T04:20:07;4.20;92.40
9448;DHT22;4762;48.128;11.376;2024-01-06T04:22:11;4.00;92.50
9448;DHT22;4762;48.128;11.376;2024-01-06T04:24:15;4.00;92.50
9448;DHT22;4762;48.128;11.376;2024-01-06T04:26:17;4.00;92.20
9448;DHT22;4762;48.128;11.376;2024-01-06T04:28:23;3.80;92.10
9448;DHT22;4762;48.128;11.376;2024-01-06T04:30:25;4.00;92.30
9448;DHT22;4762;48.128;11.376;2024-01-06T04:32:28;3.90;91.50
9448;DHT22;4762;48.128;11.376;2024-01-06T04:34:30;3.70;90.80
9448;DHT22;4762;48.128;11.376;2024-01-06T04:36:32;3.70;91.30
9448;DHT22;4762;48.128;11.376;2024-01-06T04:38:34;3.70;91.70
9448;DHT22;4762;48.128;11.376;2024-01-06T04:40:36;3.70;91.60
9448;DHT22;4762;48.128;11.376;2024-01-06T04:42:39;3.50;91.10
9448;DHT22;4762;48.128;11.376;2024-01-06T04:44:41;3.70;91.20
9448;DHT22;4762;48.128;11.376;2024-01-06T04:46:44;3.70;91.20
9448;DHT22;4762;48.128;11.376;2024-01-06T04:48:47;3.60;91.40
9448;DHT22;4762;48.128;11.376;2024-01-06T04:50:48;3.60;91.50
9448;DHT22;4762;48.128;11.376;2024-01-06T04:52:50;3.70;91.50
9448;DHT22;4762;48.128;11.376;2024-01-06T04:54:53;3.50;91.10
9448;DHT22;4762;48.128;11.376;2024-01-06T04:56:55;3.60;91.00
9448;DHT22;4762;48.128;11.376;2024-01-06T04:58:57;3.50;90.70
9448;DHT22;4762;48.128;11.376;2024-01-06T05:00:59;3.40;90.70
9448;DHT22;4762;48.128;11.376;2024-01-06T05:03:02;3.50;90.50
9448;DHT22;4762;48.128;11.376;2024-01-06T05:05:04;3.60;90.40
9448;DHT22;4762;48.128;11.376;2024-01-06T05:07:06;3.50;90.80
9448;DHT22;4762;48.128;11.376;2024-01-06T05:09:08;3.50;90.70
9448;DHT22;4762;48.128;11.376;2024-01-06T05:11:12;3.50;90.50
9448;DHT22;4762;48.128;11.376;2024-01-06T05:13:14;3.40;90.90
9448;DHT22;4762;48.128;11.376;2024-01-06T05:15:16;3.40;90.90
9448;DHT22;4762;48.128;11.376;2024-01-06T05:17:19;3.40;90.60
9448;DHT22;4762;48.128;11.376;2024-01-06T05:19:21;3.30;90.40
9448;DHT22;4762;48.128;11.376;2024-01-06T05:21:23;3.50;90.40
9448;DHT22;4762;48.128;11.376;2024-01-06T05:23:26;3.50;90.60
9448;DHT22;4762;48.128;11.376;2024-01-06T05:25:29;3.60;90.60
9448;DHT22;4762;48.128;11.376;2024-01-06T05:27:31;3.50;90.20
9448;DHT22;4762;48.128;11.376;2024-01-06T05:29:33;3.30;90.10
9448;DHT22;4762;48.128;11.376;2024-01-06T05:31:35;3.20;89.70
9448;DHT22;4762;48.128;11.376;2024-01-06T05:33:38;3.30;90.20
9448;DHT22;4762;48.128;11.376;2024-01-06T05:35:40;3.30;90.40
9448;DHT22;4762;48.128;11.376;2024-01-06T05:37:42;3.30;90.20
9448;DHT22;4762;48.128;11.376;2024-01-06T05:39:45;3.50;90.20
9448;DHT22;4762;48.128;11.376;2024-01-06T05:41:47;3.30;90.40
9448;DHT22;4762;48.128;11.376;2024-01-06T05:43:49;3.30;90.30
9448;DHT22;4762;48.128;11.376;2024-01-06T05:45:51;3.30;90.40
9448;DHT22;4762;48.128;11.376;2024-01-06T05:47:54;3.30;90.60
9448;DHT22;4762;48.128;11.376;2024-01-06T05:49:56;3.30;90.60
9448;DHT22;4762;48.128;11.376;2024-01-06T05:52:00;3.40;90.70
9448;DHT22;4762;48.128;11.376;2024-01-06T05:54:02;3.40;90.50
9448;DHT22;4762;48.128;11.376;2024-01-06T05:56:04;3.30;90.60
9448;DHT22;4762;48.128;11.376;2024-01-06T05:58:07;3.30;90.70
9448;DHT22;4762;48.128;11.376;2024-01-06T06:00:09;3.30;90.40
9448;DHT22;4762;48.128;11.376;2024-01-06T06:02:12;3.20;90.50
9448;DHT22;4762;48.128;11.376;2024-01-06T06:04:15;3.30;90.50
9448;DHT22;4762;48.128;11.376;2024-01-06T06:06:17;3.20;90.50
9448;DHT22;4762;48.128;11.376;2024-01-06T06:08:20;3.10;90.30
9448;DHT22;4762;48.128;11.376;2024-01-06T06:10:22;3.10;90.40
9448;DHT22;4762;48.128;11.376;2024-01-06T06:12:24;3.20;90.60
9448;DHT22;4762;48.128;11.376;2024-01-06T06:14:27;3.10;90.10
9448;DHT22;4762;48.128;11.376;2024-01-06T06:16:29;3.20;90.40
9448;DHT22;4762;48.128;11.376;2024-01-06T06:18:32;3.20;90.10
9448;DHT22;4762;48.128;11.376;2024-01-06T06:20:34;3.10;90.30
9448;DHT22;4762;48.128;11.376;2024-01-06T06:22:36;3.20;90.50
9448;DHT22;4762;48.128;11.376;2024-01-06T06:24:38;3.30;90.50
9448;DHT22;4762;48.128;11.376;2024-01-06T06:26:41;3.30;90.00
9448;DHT22;4762;48.128;11.376;2024-01-06T06:28:43;3.20;89.90
9448;DHT22;4762;48.128;11.376;2024-01-06T06:30:45;3.10;90.00
9448;DHT22;4762;48.128;11.376;2024-01-06T06:32:48;3.20;90.00
9448;DHT22;4762;48.128;11.376;2024-01-06T06:34:50;3.40;89.70
9448;DHT22;4762;48.128;11.376;2024-01-06T06:36:52;2.90;89.20
9448;DHT22;4762;48.128;11.376;2024-01-06T06:38:55;3.00;89.60
9448;DHT22;4762;48.128;11.376;2024-01-06T06:40:57;3.00;90.00
9448;DHT22;4762;48.128;11.376;2024-01-06T06:42:59;3.00;90.00
9448;DHT22;4762;48.128;11.376;2024-01-06T06:45:01;3.10;89.70
9448;DHT22;4762;48.128;11.376;2024-01-06T06:47:03;2.90;90.30
9448;DHT22;4762;48.128;11.376;2024-01-06T06:49:06;3.10;89.80
9448;DHT22;4762;48.128;11.376;2024-01-06T06:51:08;3.00;89.40
9448;DHT22;4762;48.128;11.376;2024-01-06T06:53:10;3.00;89.40
9448;DHT22;4762;48.128;11.376;2024-01-06T06:55:12;3.00;89.50
9448;DHT22;4762;48.128;11.376;2024-01-06T06:57:15;3.10;89.60
9448;DHT22;4762;48.128;11.376;2024-01-06T06:59:18;3.20;89.70
9448;DHT22;4762;48.128;11.376;2024-01-06T07:01:20;3.20;89.40
9448;DHT22;4762;48.128;11.376;2024-01-06T07:03:22;3.00;89.70
9448;DHT22;4762;48.128;11.376;2024-01-06T07:05:24;2.90;89.60
9448;DHT22;4762;48.128;11.376;2024-01-06T07:07:27;2.90;89.50
9448;DHT22;4762;48.128;11.376;2024-01-06T07:09:29;3.20;89.50
9448;DHT22;4762;48.128;11.376;2024-01-06T07:11:33;3.00;89.70
9448;DHT22;4762;48.128;11.376;2024-01-06T07:13:35;3.00;89.80
9448;DHT22;4762;48.128;11.376;2024-01-06T07:15:38;3.20;89.90
9448;DHT22;4762;48.128;11.376;2024-01-06T07:17:40;3.20;89.90
9448;DHT22;4762;48.128;11.376;2024-01-06T07:19:42;3.10;89.20
9448;DHT22;4762;48.128;11.376;2024-01-06T07:21:45;3.30;89.30
9448;DHT22;4762;48.128;11.376;2024-01-06T07:23:48;3.10;89.50
9448;DHT22;4762;48.128;11.376;2024-01-06T07:25:50;3.10;89.20
9448;DHT22;4762;48.128;11.376;2024-01-06T07:27:53;3.10;89.40
9448;DHT22;4762;48.128;11.376;2024-01-06T07:29:55;3.20;89.70
9448;DHT22;4762;48.128;11.376;2024-01-06T07:31:57;3.20;89.70
9448;DHT22;4762;48.128;11.376;2024-01-06T07:33:59;3.30;89.90
9448;DHT22;4762;48.128;11.376;2024-01-06T07:36:02;3.20;90.00
9448;DHT22;4762;48.128;11.376;2024-01-06T07:38:04;3.10;89.90
9448;DHT22;4762;48.128;11.376;2024-01-06T07:40:06;3.40;90.00
9448;DHT22;4762;48.128;11.376;2024-01-06T07:42:08;3.20;89.50
9448;DHT22;4762;48.128;11.376;2024-01-06T07:44:11;3.20;89.50
9448;DHT22;4762;48.128;11.376;2024-01-06T07:46:14;3.40;89.70
9448;DHT22;4762;48.128;11.376;2024-01-06T07:48:16;3.10;89.70
9448;DHT22;4762;48.128;11.376;2024-01-06T07:50:19;3.30;89.80
9448;DHT22;4762;48.128;11.376;2024-01-06T07:52:22;3.30;89.80
9448;DHT22;4762;48.128;11.376;2024-01-06T07:54:25;3.10;89.30
9448;DHT22;4762;48.128;11.376;2024-01-06T07:56:28;3.10;89.80
9448;DHT22;4762;48.128;11.376;2024-01-06T07:58:30;2.90;90.40
9448;DHT22;4762;48.128;11.376;2024-01-06T08:00:32;3.30;90.60
9448;DHT22;4762;48.128;11.376;2024-01-06T08:02:34;3.20;90.60
9448;DHT22;4762;48.128;11.376;2024-01-06T08:04:36;3.30;90.50
9448;DHT22;4762;48.128;11.376;2024-01-06T08:06:39;3.30;90.20
9448;DHT22;4762;48.128;11.376;2024-01-06T08:08:41;3.30;89.80
9448;DHT22;4762;48.128;11.376;2024-01-06T08:10:43;3.10;89.60
9448;DHT22;4762;48.128;11.376;2024-01-06T08:12:46;3.00;90.00
9448;DHT22;4762;48.128;11.376;2024-01-06T08:14:48;3.30;89.90
9448;DHT22;4762;48.128;11.376;2024-01-06T08:16:50;3.00;89.90
9448;DHT22;4762;48.128;11.376;2024-01-06T08:18:53;3.10;90.00
9448;DHT22;4762;48.128;11.376;2024-01-06T08:20:55;3.30;89.70
9448;DHT22;4762;48.128;11.376;2024-01-06T08:22:57;3.10;89.60
9448;DHT22;4762;48.128;11.376;2024-01-06T08:25:00;3.10;89.00
9448;DHT22;4762;48.128;11.376;2024-01-06T08:27:02;3.20;88.90
9448;DHT22;4762;48.128;11.376;2024-01-06T08:29:04;3.00;89.10
9448;DHT22;4762;48.128;11.376;2024-01-06T08:31:07;3.30;89.00
9448;DHT22;4762;48.128;11.376;2024-01-06T08:33:09;3.20;89.30
9448;DHT22;4762;48.128;11.376;2024-01-06T08:35:11;3.20;88.90
9448;DHT22;4762;48.128;11.376;2024-01-06T08:37:14;3.10;89.30
9448;DHT22;4762;48.128;11.376;2024-01-06T08:39:20;3.10;88.20
9448;DHT22;4762;48.128;11.376;2024-01-06T08:41:25;3.20;88.50
9448;DHT22;4762;48.128;11.376;2024-01-06T08:43:27;3.30;89.40
9448;DHT22;4762;48.128;11.376;2024-01-06T08:45:29;3.50;88.90
9448;DHT22;4762;48.128;11.376;2024-01-06T08:47:31;3.50;88.70
9448;DHT22;4762;48.128;11.376;2024-01-06T08:49:34;3.40;88.70
9448;DHT22;4762;48.128;11.376;2024-01-06T08:51:36;3.50;88.90
9448;DHT22;4762;48.128;11.376;2024-01-06T08:53:39;3.50;88.10
9448;DHT22;4762;48.128;11.376;2024-01-06T08:55:42;3.40;87.60
9448;DHT22;4762;48.128;11.376;2024-01-06T08:57:46;3.60;87.40
9448;DHT22;4762;48.128;11.376;2024-01-06T08:59:49;3.40;87.80
9448;DHT22;4762;48.128;11.376;2024-01-06T09:01:52;3.60;88.40
9448;DHT22;4762;48.128;11.376;2024-01-06T09:03:54;3.60;88.00
9448;DHT22;4762;48.128;11.376;2024-01-06T09:05:56;3.30;87.90
9448;DHT22;4762;48.128;11.376;2024-01-06T09:07:59;3.50;88.40
9448;DHT22;4762;48.128;11.376;2024-01-06T09:10:05;3.20;88.70
9448;DHT22;4762;48.128;11.376;2024-01-06T09:12:08;3.50;88.80
9448;DHT22;4762;48.128;11.376;2024-01-06T09:14:11;3.50;88.80
9448;DHT22;4762;48.128;11.376;2024-01-06T09:16:14;3.50;89.30
9448;DHT22;4762;48.128;11.376;2024-01-06T09:18:16;3.50;89.10
9448;DHT22;4762;48.128;11.376;2024-01-06T09:20:19;3.50;89.20
9448;DHT22;4762;48.128;11.376;2024-01-06T09:22:21;3.50;88.70
9448;DHT22;4762;48.128;11.376;2024-01-06T09:24:23;3.50;89.00
9448;DHT22;4762;48.128;11.376;2024-01-06T09:26:25;3.30;88.80
9448;DHT22;4762;48.128;11.376;2024-01-06T09:28:28;3.50;89.00
9448;DHT22;4762;48.128;11.376;2024-01-06T09:30:30;3.50;89.10
9448;DHT22;4762;48.128;11.376;2024-01-06T09:32:32;3.20;88.80
9448;DHT22;4762;48.128;11.376;2024-01-06T09:34:34;3.40;89.00
9448;DHT22;4762;48.128;11.376;2024-01-06T09:36:36;3.40;88.70
9448;DHT22;4762;48.128;11.376;2024-01-06T09:38:39;3.30;88.40
9448;DHT22;4762;48.128;11.376;2024-01-06T09:40:41;3.40;88.20
9448;DHT22;4762;48.128;11.376;2024-01-06T09:42:43;3.20;88.10
9448;DHT22;4762;48.128;11.376;2024-01-06T09:44:45;3.10;88.90
9448;DHT22;4762;48.128;11.376;2024-01-06T09:46:47;3.20;88.80
9448;DHT22;4762;48.128;11.376;2024-01-06T09:48:50;3.40;88.70
9448;DHT22;4762;48.128;11.376;2024-01-06T09:50:52;3.20;89.20
9448;DHT22;4762;48.128;11.376;2024-01-06T09:52:54;3.10;88.60
9448;DHT22;4762;48.128;11.376;2024-01-06T09:54:56;3.10;88.80
9448;DHT22;4762;48.128;11.376;2024-01-06T09:56:59;3.10;88.60
9448;DHT22;4762;48.128;11.376;2024-01-06T09:59:01;3.10;88.70
9448;DHT22;4762;48.128;11.376;2024-01-06T10:01:03;3.20;89.00
9448;DHT22;4762;48.128;11.376;2024-01-06T10:03:05;3.20;88.70
9448;DHT22;4762;48.128;11.376;2024-01-06T10:05:07;3.10;88.40
9448;DHT22;4762;48.128;11.376;2024-01-06T10:07:10;3.20;88.80
9448;DHT22;4762;48.128;11.376;2024-01-06T10:09:12;3.30;89.30
9448;DHT22;4762;48.128;11.376;2024-01-06T10:11:14;3.50;88.70
9448;DHT22;4762;48.128;11.376;2024-01-06T10:13:16;3.30;88.40
9448;DHT22;4762;48.128;11.376;2024-01-06T10:15:19;3.30;88.90
9448;DHT22;4762;48.128;11.376;2024-01-06T10:17:21;3.40;88.60
9448;DHT22;4762;48.128;11.376;2024-01-06T10:19:24;3.40;88.80
9448;DHT22;4762;48.128;11.376;2024-01-06T10:21:26;3.70;88.70
9448;DHT22;4762;48.128;11.376;2024-01-06T10:23:28;3.70;88.40
9448;DHT22;4762;48.128;11.376;2024-01-06T10:25:30;3.20;88.50
9448;DHT22;4762;48.128;11.376;2024-01-06T10:27:36;3.50;88.50
9448;DHT22;4762;48.128;11.376;2024-01-06T10:29:38;3.70;88.40
9448;DHT22;4762;48.128;11.376;2024-01-06T10:31:40;3.50;88.30
9448;DHT22;4762;48.128;11.376;2024-01-06T10:33:42;3.30;88.80
9448;DHT22;4762;48.128;11.376;2024-01-06T10:35:44;3.30;89.00
9448;DHT22;4762;48.128;11.376;2024-01-06T10:37:47;3.40;89.30
9448;DHT22;4762;48.128;11.376;2024-01-06T10:39:49;3.40;88.80
9448;DHT22;4762;48.128;11.376;2024-01-06T10:41:51;3.40;88.70
9448;DHT22;4762;48.128;11.376;2024-01-06T10:43:53;3.60;88.60
9448;DHT22;4762;48.128;11.376;2024-01-06T10:45:56;3.60;89.20
9448;DHT22;4762;48.128;11.376;2024-01-06T10:47:58;3.60;88.70
9448;DHT22;4762;48.128;11.376;2024-01-06T10:50:00;3.70;88.60
9448;DHT22;4762;48.128;11.376;2024-01-06T10:52:03;3.50;88.30
9448;DHT22;4762;48.128;11.376;2024-01-06T10:54:05;3.60;88.00
9448;DHT22;4762;48.128;11.376;2024-01-06T10:56:08;3.50;88.10
9448;DHT22;4762;48.128;11.376;2024-01-06T10:58:10;3.30;88.30
9448;DHT22;4762;48.128;11.376;2024-01-06T11:00:12;3.60;88.80
9448;DHT22;4762;48.128;11.376;2024-01-06T11:02:15;3.50;88.60
9448;DHT22;4762;48.128;11.376;2024-01-06T11:04:17;3.50;88.40
9448;DHT22;4762;48.128;11.376;2024-01-06T11:06:19;3.40;88.80
9448;DHT22;4762;48.128;11.376;2024-01-06T11:08:21;3.50;88.40
9448;DHT22;4762;48.128;11.376;2024-01-06T11:10:24;3.70;88.20
9448;DHT22;4762;48.128;11.376;2024-01-06T11:12:26;3.50;88.30
9448;DHT22;4762;48.128;11.376;2024-01-06T11:14:28;3.60;88.70
9448;DHT22;4762;48.128;11.376;2024-01-06T11:16:33;3.50;88.60
9448;DHT22;4762;48.128;11.376;2024-01-06T11:18:35;3.70;88.40
9448;DHT22;4762;48.128;11.376;2024-01-06T11:20:37;3.60;88.10
9448;DHT22;4762;48.128;11.376;2024-01-06T11:22:39;3.60;88.00
9448;DHT22;4762;48.128;11.376;2024-01-06T11:24:42;3.60;87.70
9448;DHT22;4762;48.128;11.376;2024-01-06T11:26:44;3.40;87.90
9448;DHT22;4762;48.128;11.376;2024-01-06T11:28:46;3.40;88.40
9448;DHT22;4762;48.128;11.376;2024-01-06T11:31:04;3.30;88.50
9448;DHT22;4762;48.128;11.376;2024-01-06T11:32:52;3.40;88.30
9448;DHT22;4762;48.128;11.376;2024-01-06T11:34:54;3.60;88.60
9448;DHT22;4762;48.128;11.376;2024-01-06T11:36:56;3.50;88.10
9448;DHT22;4762;48.128;11.376;2024-01-06T11:38:58;3.40;88.40
9448;DHT22;4762;48.128;11.376;2024-01-06T11:41:00;3.50;88.30
9448;DHT22;4762;48.128;11.376;2024-01-06T11:43:06;3.50;88.20
9448;DHT22;4762;48.128;11.376;2024-01-06T11:45:07;3.40;88.00
9448;DHT22;4762;48.128;11.376;2024-01-06T11:47:10;3.30;87.90
9448;DHT22;4762;48.128;11.376;2024-01-06T11:49:12;3.30;88.20
9448;DHT22;4762;48.128;11.376;2024-01-06T11:51:14;3.50;88.40
9448;DHT22;4762;48.128;11.376;2024-01-06T11:53:16;3.40;88.00
9448;DHT22;4762;48.128;11.376;2024-01-06T11:55:18;3.50;88.20
9448;DHT22;4762;48.128;11.376;2024-01-06T11:57:20;3.50;88.10
9448;DHT22;4762;48.128;11.376;2024-01-06T11:59:23;3.60;88.30
9448;DHT22;4762;48.128;11.376;2024-01-06T12:01:25;3.80;88.00
9448;DHT22;4762;48.128;11.376;2024-01-06T12:03:27;3.60;87.70
9448;DHT22;4762;48.128;11.376;2024-01-06T12:05:29;3.50;87.90
9448;DHT22;4762;48.128;11.376;2024-01-06T12:07:31;3.40;88.10
9448;DHT22;4762;48.128;11.376;2024-01-06T12:09:34;3.40;88.00
9448;DHT22;4762;48.128;11.376;2024-01-06T12:11:36;3.30;88.50
9448;DHT22;4762;48.128;11.376;2024-01-06T12:13:39;3.30;89.10
9448;DHT22;4762;48.128;11.376;2024-01-06T12:15:41;3.40;89.40
9448;DHT22;4762;48.128;11.376;2024-01-06T12:17:43;3.50;89.50
9448;DHT22;4762;48.128;11.376;2024-01-06T12:19:45;3.20;89.70
9448;DHT22;4762;48.128;11.376;2024-01-06T12:21:48;3.30;90.10
9448;DHT22;4762;48.128;11.376;2024-01-06T12:23:51;3.30;90.20
9448;DHT22;4762;48.128;11.376;2024-01-06T12:25:55;3.00;90.30
9448;DHT22;4762;48.128;11.376;2024-01-06T12:27:56;3.20;90.70
9448;DHT22;4762;48.128;11.376;2024-01-06T12:29:58;3.20;90.80
9448;DHT22;4762;48.128;11.376;2024-01-06T12:32:02;3.30;91.00
9448;DHT22;4762;48.128;11.376;2024-01-06T12:34:15;3.20;91.30
9448;DHT22;4762;48.128;11.376;2024-01-06T12:36:17;2.90;91.00
9448;DHT22;4762;48.128;11.376;2024-01-06T12:38:19;3.00;90.80
9448;DHT22;4762;48.128;11.376;2024-01-06T12:40:21;3.10;90.30
9448;DHT22;4762;48.128;11.376;2024-01-06T12:42:23;2.70;90.50
9448;DHT22;4762;48.128;11.376;2024-01-06T12:44:26;2.80;90.70
9448;DHT22;4762;48.128;11.376;2024-01-06T12:46:28;2.50;90.30
9448;DHT22;4762;48.128;11.376;2024-01-06T12:48:30;2.70;90.20
9448;DHT22;4762;48.128;11.376;2024-01-06T12:50:33;3.00;90.50
9448;DHT22;4762;48.128;11.376;2024-01-06T12:52:35;3.10;90.90
9448;DHT22;4762;48.128;11.376;2024-01-06T12:54:37;2.80;89.30
9448;DHT22;4762;48.128;11.376;2024-01-06T12:56:40;2.80;89.90
9448;DHT22;4762;48.128;11.376;2024-01-06T12:58:41;2.90;89.60
9448;DHT22;4762;48.128;11.376;2024-01-06T13:00:44;2.90;89.90
9448;DHT22;4762;48.128;11.376;2024-01-06T13:02:46;3.00;89.90
9448;DHT22;4762;48.128;11.376;2024-01-06T13:04:48;3.00;90.10
9448;DHT22;4762;48.128;11.376;2024-01-06T13:06:50;2.90;89.70
9448;DHT22;4762;48.128;11.376;2024-01-06T13:08:52;3.00;89.20
9448;DHT22;4762;48.128;11.376;2024-01-06T13:10:55;3.00;89.40
9448;DHT22;4762;48.128;11.376;2024-01-06T13:12:57;3.00;88.60
9448;DHT22;4762;48.128;11.376;2024-01-06T13:14:59;3.00;87.90
9448;DHT22;4762;48.128;11.376;2024-01-06T13:17:01;3.00;88.40
9448;DHT22;4762;48.128;11.376;2024-01-06T13:19:04;2.60;88.70